Time;durP1;ratioP1;P1;durP2;ratioP2;P2;SDS_P1;SDS_P2;PMS_P1;PMS_P2;Temp;Humidity;BMP_temperature;BMP_pressure;BME280_temperature;BME280_humidity;BME280_pressure;Samples;Min_cycle;Max_cycle;Signal;HPM_P1;HPM_P2
2023/10/06 00:00:35;;;;;;;10.07;6.40;;;8.60;99.90;;;7.85;100.00;98994.19;5034877;28;20446;-74
2023/10/06 00:03:05;;;;;;;8.93;6.80;;;8.60;99.80;;;8.08;100.00;99034.63;5036472;28;20468;-76
2023/10/06 00:05:33;;;;;;;11.90;7.20;;;8.50;99.90;;;8.07;100.00;99034.78;5037005;28;20470;-74
2023/10/06 00:08:04;;;;;;;9.67;6.60;;;8.60;99.90;;;7.93;100.00;99044.44;5041575;28;20449;-74
2023/10/06 00:10:32;;;;;;;11.10;6.67;;;8.50;99.90;;;7.84;100.00;99035.56;5038460;28;20849;-75
2023/10/06 00:12:59;;;;;;;9.60;6.57;;;8.50;99.90;;;7.83;100.00;99041.94;5059250;28;21193;-75
2023/10/06 00:15:35;;;;;;;11.60;6.70;;;8.40;99.90;;;7.72;100.00;99015.41;5044849;28;20560;-76
2023/10/06 00:18:07;;;;;;;9.00;7.30;;;8.40;99.90;;;7.89;100.00;99025.09;5045470;28;20477;-74
2023/10/06 00:20:42;;;;;;;10.60;7.70;;;8.30;99.90;;;7.71;100.00;99009.16;5061255;28;20455;-75
2023/10/06 00:23:13;;;;;;;10.00;6.73;;;8.30;99.90;;;7.75;100.00;99020.44;5045141;28;20438;-73
2023/10/06 00:25:42;;;;;;;11.37;7.50;;;8.30;99.90;;;7.69;100.00;99027.34;5039670;28;20466;-74
2023/10/06 00:28:17;;;;;;;11.70;6.70;;;8.30;99.90;;;7.67;100.00;99026.69;5047568;28;20446;-75
2023/10/06 00:30:46;;;;;;;9.77;6.80;;;8.30;99.90;;;7.67;100.00;99036.63;5044408;28;20885;-77
2023/10/06 00:33:14;;;;;;;9.53;6.77;;;8.20;99.90;;;7.60;100.00;99028.38;5037455;28;20818;-75
2023/10/06 00:35:44;;;;;;;11.07;6.83;;;8.20;99.90;;;7.59;100.00;99042.84;5045705;28;20539;-75
2023/10/06 00:38:16;;;;;;;9.87;7.37;;;8.10;99.90;;;7.55;100.00;99039.66;5040959;28;20464;-76
2023/10/06 00:40:50;;;;;;;11.40;7.47;;;8.00;99.90;;;7.36;100.00;99022.88;5057543;28;20488;-76
2023/10/06 00:43:30;;;;;;;9.20;7.43;;;8.00;99.90;;;7.33;100.00;99027.75;5045205;28;20456;-75
2023/10/06 00:46:00;;;;;;;15.60;7.57;;;8.00;99.90;;;7.37;100.00;99021.88;5043734;28;20485;-75
2023/10/06 00:48:29;;;;;;;9.70;6.63;;;8.00;99.90;;;7.35;100.00;99026.59;5040022;28;20457;-75
2023/10/06 00:50:58;;;;;;;9.70;6.90;;;7.90;99.90;;;7.36;100.00;99032.78;5041575;28;20646;-78
2023/10/06 00:53:31;;;;;;;9.20;6.77;;;7.80;99.90;;;7.34;100.00;99027.56;5051639;28;20455;-73
2023/10/06 00:56:04;;;;;;;7.50;6.33;;;7.80;99.90;;;7.31;100.00;99024.41;5044907;28;20461;-73
2023/10/06 00:58:34;;;;;;;10.90;7.23;;;7.90;99.90;;;7.34;100.00;99024.88;5042278;28;20447;-74
2023/10/06 01:01:05;;;;;;;9.93;5.93;;;7.90;99.90;;;7.35;100.00;99037.34;5053677;28;20444;-76
2023/10/06 01:03:38;;;;;;;9.73;6.50;;;7.90;99.90;;;7.23;100.00;99038.69;5043875;28;20566;-75
2023/10/06 01:06:12;;;;;;;12.23;7.10;;;7.80;99.90;;;7.23;100.00;99039.50;5053925;28;20479;-75
2023/10/06 01:08:48;;;;;;;9.83;6.13;;;7.80;99.90;;;7.24;100.00;99034.97;5050766;28;20536;-74
2023/10/06 01:11:17;;;;;;;10.40;6.47;;;7.70;99.90;;;7.17;100.00;99044.72;5036714;28;20461;-75
2023/10/06 01:13:54;;;;;;;9.83;7.00;;;7.70;99.90;;;6.68;100.00;98968.47;5040392;28;20647;-76
2023/10/06 01:16:31;;;;;;;9.23;6.70;;;7.70;99.90;;;7.19;100.00;99031.94;5042792;28;20530;-75
2023/10/06 01:19:14;;;;;;;15.80;6.80;;;7.70;99.90;;;7.03;100.00;99004.06;5041500;28;20455;-74
2023/10/06 01:21:45;;;;;;;10.60;7.40;;;7.70;99.90;;;7.12;100.00;99021.03;5043313;28;20908;-75
2023/10/06 01:24:15;;;;;;;21.90;6.73;;;7.70;99.90;;;6.94;100.00;98999.72;5045531;28;20450;-75
2023/10/06 01:26:42;;;;;;;12.10;6.70;;;7.70;99.90;;;7.02;100.00;99009.63;5060772;28;20471;-76
2023/10/06 01:29:11;;;;;;;14.23;7.93;;;7.70;99.90;;;7.00;100.00;99017.84;5040852;28;20442;-75
2023/10/06 01:31:40;;;;;;;11.37;7.23;;;7.70;99.90;;;7.06;100.00;99022.56;5041482;28;21011;-75
2023/10/06 01:34:08;;;;;;;10.43;7.20;;;7.70;99.90;;;6.92;100.00;99007.09;5042646;28;20580;-74
2023/10/06 01:36:36;;;;;;;12.00;7.57;;;7.60;99.90;;;6.99;100.00;99020.72;5045191;28;20465;-75
2023/10/06 01:39:05;;;;;;;11.63;7.03;;;7.60;99.90;;;6.94;100.00;99015.84;5043126;28;20934;-73
2023/10/06 01:41:35;;;;;;;15.97;7.67;;;7.60;99.90;;;6.90;100.00;99019.84;5044586;28;20485;-73
2023/10/06 01:44:10;;;;;;;13.03;7.93;;;7.50;99.90;;;6.87;100.00;99012.13;5037707;28;20947;-75
2023/10/06 01:46:38;;;;;;;11.43;7.50;;;7.50;99.90;;;6.83;100.00;99000.91;5045150;28;20473;-73
2023/10/06 01:49:10;;;;;;;13.93;7.87;;;7.60;99.90;;;6.82;100.00;99009.94;5041570;28;20614;-75
2023/10/06 01:51:38;;;;;;;11.13;7.70;;;7.50;99.90;;;6.76;100.00;98997.19;5042642;28;20446;-75
2023/10/06 01:54:11;;;;;;;13.13;7.57;;;7.50;99.90;;;6.89;100.00;99012.78;5042900;28;20450;-77
2023/10/06 01:56:42;;;;;;;12.33;7.70;;;7.50;99.90;;;6.63;100.00;98987.75;5036739;28;20445;-75
2023/10/06 01:59:10;;;;;;;10.43;7.47;;;7.50;99.90;;;6.85;100.00;99006.09;5043264;28;21263;-76
2023/10/06 02:01:39;;;;;;;13.00;8.37;;;7.50;99.90;;;6.88;100.00;99013.81;5043925;28;20497;-76
2023/10/06 02:04:10;;;;;;;12.20;7.77;;;7.50;99.90;;;6.82;100.00;99009.94;5049833;28;20445;-76
2023/10/06 02:06:37;;;;;;;11.07;8.20;;;7.40;99.90;;;6.76;100.00;99011.47;5043535;28;20472;-75
2023/10/06 02:09:14;;;;;;;13.47;8.00;;;7.40;99.90;;;6.59;100.00;98983.75;5041615;28;20471;-77
2023/10/06 02:11:43;;;;;;;13.50;8.77;;;7.40;99.90;;;6.76;100.00;99016.84;5045225;28;20468;-76
2023/10/06 02:14:11;;;;;;;14.40;9.90;;;7.40;99.90;;;6.72;100.00;99015.47;5037493;28;20972;-77
2023/10/06 02:16:38;;;;;;;20.70;10.57;;;7.30;99.90;;;6.75;100.00;99014.31;5048644;28;20438;-77
2023/10/06 02:19:08;;;;;;;18.63;9.77;;;7.30;99.90;;;6.67;100.00;99007.09;5049340;28;20457;-76
2023/10/06 02:21:36;;;;;;;18.87;8.93;;;7.30;99.90;;;6.64;100.00;99015.47;5048745;28;20449;-74
2023/10/06 02:24:08;;;;;;;13.20;9.00;;;7.30;99.90;;;6.72;100.00;99011.97;5044003;28;20516;-76
2023/10/06 02:26:37;;;;;;;14.60;7.93;;;7.30;99.90;;;6.72;100.00;99014.66;5044154;28;20474;-75
2023/10/06 02:29:16;;;;;;;12.70;8.50;;;7.30;99.90;;;6.75;100.00;99012.47;5040033;28;21279;-75
2023/10/06 02:31:43;;;;;;;14.87;7.87;;;7.30;99.90;;;6.75;100.00;99015.16;5037850;28;20445;-74
2023/10/06 02:34:15;;;;;;;10.10;7.77;;;7.30;99.90;;;6.58;100.00;98997.31;5042502;28;20942;-77
2023/10/06 02:36:43;;;;;;;14.73;8.67;;;7.30;99.90;;;6.72;100.00;99010.09;5041215;28;20449;-78
2023/10/06 02:39:15;;;;;;;8.70;7.53;;;7.30;99.90;;;6.67;100.00;99007.09;5038910;28;20982;-75
2023/10/06 02:41:46;;;;;;;17.83;8.30;;;7.30;99.90;;;6.62;100.00;99004.06;5038158;28;20474;-77
2023/10/06 02:44:16;;;;;;;10.80;7.83;;;7.30;99.90;;;6.45;100.00;98989.75;5053119;28;20465;-78
2023/10/06 02:46:45;;;;;;;11.73;8.23;;;7.30;99.90;;;6.54;100.00;99004.88;5034680;28;20577;-77
2023/10/06 02:49:13;;;;;;;10.80;8.30;;;7.20;99.90;;;6.50;100.00;98998.16;5037366;28;20453;-76
2023/10/06 02:51:48;;;;;;;12.13;8.53;;;7.20;99.90;;;6.38;100.00;98994.94;5032670;28;20453;-75
2023/10/06 02:54:27;;;;;;;10.97;7.80;;;7.20;99.90;;;6.30;100.00;98985.03;5052151;28;20576;-76
2023/10/06 02:56:55;;;;;;;11.90;7.93;;;7.10;99.90;;;6.29;100.00;98983.34;5043471;28;20441;-76
2023/10/06 02:59:25;;;;;;;11.83;8.37;;;7.10;99.90;;;6.36;100.00;99005.00;5041447;28;20461;-77
2023/10/06 03:01:56;;;;;;;13.00;8.00;;;7.10;99.90;;;6.48;100.00;99008.22;5055828;28;20518;-76
2023/10/06 03:04:26;;;;;;;10.00;7.87;;;7.10;99.90;;;6.37;100.00;99001.31;5041964;28;20443;-76
2023/10/06 03:06:55;;;;;;;12.77;8.00;;;7.00;99.90;;;6.35;100.00;98992.59;5043118;28;21241;-75
2023/10/06 03:09:29;;;;;;;14.50;8.13;;;7.00;99.90;;;6.25;100.00;98982.00;5043158;28;20472;-75
2023/10/06 03:11:59;;;;;;;13.70;7.47;;;7.00;99.90;;;6.41;100.00;99001.84;5024021;28;20546;-76
2023/10/06 03:14:38;;;;;;;13.30;8.40;;;7.00;99.90;;;6.44;100.00;99002.31;5047507;28;20950;-77
2023/10/06 03:17:10;;;;;;;15.43;7.70;;;7.00;99.90;;;6.31;100.00;98991.25;5038343;28;20540;-77
2023/10/06 03:19:40;;;;;;;15.73;7.40;;;7.00;99.90;;;6.26;100.00;98982.84;5038580;28;20486;-76
2023/10/06 03:22:09;;;;;;;13.17;8.10;;;7.00;99.90;;;6.44;100.00;98996.13;5041256;28;20520;-76
2023/10/06 03:24:52;;;;;;;12.57;8.27;;;7.00;99.90;;;6.26;100.00;98996.25;5034849;28;20481;-76
2023/10/06 03:27:22;;;;;;;12.73;7.97;;;7.00;99.90;;;6.24;100.00;98986.53;5036859;28;20473;-76
2023/10/06 03:29:54;;;;;;;13.07;7.77;;;7.00;99.90;;;6.29;100.00;99002.13;5041918;28;20453;-77
2023/10/06 03:32:28;;;;;;;12.17;8.40;;;6.90;99.90;;;6.22;100.00;98996.59;5042459;28;20475;-78
2023/10/06 03:34:59;;;;;;;10.20;8.37;;;6.90;99.90;;;6.30;100.00;99006.50;5040337;28;20445;-77
2023/10/06 03:37:38;;;;;;;12.70;9.03;;;6.90;99.90;;;6.24;100.00;99002.63;5039667;28;20455;-78
2023/10/06 03:40:21;;;;;;;11.80;8.10;;;6.90;99.90;;;6.19;100.00;99004.97;5041572;28;20445;-76
2023/10/06 03:42:49;;;;;;;13.10;8.70;;;6.80;99.90;;;6.18;100.00;99014.03;5041841;28;20581;-76
2023/10/06 03:45:26;;;;;;;11.40;8.37;;;6.80;99.90;;;6.21;100.00;99007.47;5044662;28;21167;-76
2023/10/06 03:48:08;;;;;;;18.07;8.90;;;6.80;99.90;;;6.14;100.00;98999.25;5040875;28;20488;-76
2023/10/06 03:50:38;;;;;;;15.37;9.20;;;6.80;99.90;;;6.22;100.00;99019.91;5053450;28;20496;-76
2023/10/06 03:53:07;;;;;;;11.70;8.23;;;6.80;99.90;;;6.24;100.00;99017.91;5045363;28;20957;-78
2023/10/06 03:55:39;;;;;;;14.73;8.67;;;6.80;99.90;;;6.09;100.00;99004.25;5049570;28;20457;-76
2023/10/06 03:58:08;;;;;;;12.87;8.17;;;6.70;99.90;;;6.15;100.00;99013.50;5045665;28;20628;-77
2023/10/06 04:00:40;;;;;;;11.67;8.07;;;6.70;99.90;;;5.98;100.00;98997.31;5040799;28;20469;-77
2023/10/06 04:03:09;;;;;;;13.00;7.87;;;6.70;99.90;;;6.05;100.00;99006.41;5035078;28;20473;-76
2023/10/06 04:05:38;;;;;;;15.87;8.47;;;6.70;99.90;;;6.08;100.00;99007.94;5044208;28;20470;-74
2023/10/06 04:08:11;;;;;;;11.00;7.40;;;6.70;99.90;;;6.01;100.00;99010.44;5047238;28;20499;-74
2023/10/06 04:10:40;;;;;;;14.27;8.53;;;6.60;99.90;;;5.97;100.00;98995.63;5025799;28;20508;-76
2023/10/06 04:13:09;;;;;;;13.90;8.20;;;6.60;99.90;;;5.92;100.00;99004.16;5047054;28;20908;-75
2023/10/06 04:15:43;;;;;;;15.00;7.03;;;6.60;99.90;;;5.84;100.00;98971.09;5043265;28;20451;-77
2023/10/06 04:18:11;;;;;;;15.97;8.70;;;6.60;99.90;;;6.02;100.00;99003.22;5043903;28;20465;-76
2023/10/06 04:20:40;;;;;;;14.70;8.90;;;6.60;99.90;;;6.00;100.00;99005.22;5042308;28;20457;-75
2023/10/06 04:23:08;;;;;;;12.93;10.20;;;6.60;99.90;;;6.05;100.00;98993.00;5057534;28;20948;-74
2023/10/06 04:25:37;;;;;;;12.77;7.40;;;6.60;99.90;;;5.91;100.00;98994.44;5046724;28;20457;-75
2023/10/06 04:28:11;;;;;;;15.37;8.17;;;6.60;99.90;;;5.92;100.00;99004.16;5045144;28;20523;-75
2023/10/06 04:30:42;;;;;;;16.13;8.83;;;6.60;99.90;;;5.89;100.00;98996.44;5045313;28;20466;-74
2023/10/06 04:33:10;;;;;;;11.30;8.33;;;6.60;99.90;;;5.94;100.00;98995.97;5042024;28;20630;-74
2023/10/06 04:35:40;;;;;;;14.77;9.70;;;6.60;99.90;;;5.80;100.00;99000.94;5047523;28;20461;-76
2023/10/06 04:38:12;;;;;;;15.63;8.97;;;6.50;99.90;;;5.90;100.00;98998.13;5043648;28;20483;-77
2023/10/06 04:40:40;;;;;;;14.23;8.53;;;6.50;99.90;;;5.79;100.00;98987.66;5043604;28;20482;-74
2023/10/06 04:43:09;;;;;;;15.03;9.03;;;6.50;99.90;;;5.27;100.00;98918.88;5045437;28;20485;-75
2023/10/06 04:45:38;;;;;;;18.23;10.20;;;6.50;99.90;;;5.81;100.00;99004.44;5040143;28;20458;-76
2023/10/06 04:48:09;;;;;;;13.60;10.00;;;6.50;99.90;;;5.88;100.00;99008.16;5042216;28;20806;-77
2023/10/06 04:50:37;;;;;;;20.60;10.97;;;6.50;99.90;;;5.87;100.00;99006.50;5043353;28;20871;-76
2023/10/06 04:53:06;;;;;;;22.30;10.00;;;6.50;99.90;;;5.79;100.00;99003.75;5044753;28;20453;-77
2023/10/06 04:55:37;;;;;;;16.10;10.20;;;6.50;99.90;;;5.79;100.00;99009.13;5038155;28;20463;-84
2023/10/06 04:58:06;;;;;;;18.23;11.20;;;6.50;99.90;;;5.79;100.00;99004.63;5049983;28;20461;-81
2023/10/06 05:00:34;;;;;;;15.70;9.70;;;6.50;99.90;;;5.34;100.00;98914.56;5039887;28;20461;-81
2023/10/06 05:03:06;;;;;;;16.60;10.17;;;6.50;99.90;;;5.82;100.00;98992.69;5045900;28;20548;-80
2023/10/06 05:05:40;;;;;;;20.17;10.43;;;6.60;99.90;;;5.74;100.00;98992.69;5048518;28;20842;-82
2023/10/06 05:08:09;;;;;;;16.23;11.30;;;6.60;99.90;;;5.79;100.00;98990.34;5046978;28;20573;-79
2023/10/06 05:10:39;;;;;;;17.63;11.37;;;6.60;99.90;;;5.86;100.00;99009.31;5047380;28;21002;-81
2023/10/06 05:13:06;;;;;;;16.57;9.90;;;6.60;99.90;;;5.69;100.00;98987.78;5039662;28;20492;-81
2023/10/06 05:15:34;;;;;;;12.17;9.90;;;6.50;99.90;;;5.91;100.00;99002.47;5039148;28;20462;-75
2023/10/06 05:18:03;;;;;;;13.73;9.20;;;6.60;99.90;;;5.88;100.00;99007.31;5053979;28;20450;-75
2023/10/06 05:20:32;;;;;;;14.33;10.33;;;6.60;99.90;;;5.81;100.00;99007.13;5043369;28;20457;-79
2023/10/06 05:23:05;;;;;;;15.67;10.17;;;6.60;99.90;;;5.66;100.00;98970.19;5045170;28;20480;-80
2023/10/06 05:25:33;;;;;;;14.23;10.33;;;6.60;99.90;;;5.88;100.00;99008.16;5048372;28;20458;-81
2023/10/06 05:28:00;;;;;;;17.03;11.00;;;6.50;99.90;;;5.84;100.00;99012.19;5045610;28;20474;-76
2023/10/06 05:30:28;;;;;;;21.70;10.73;;;6.50;99.90;;;5.25;100.00;98919.06;5044537;28;20815;-76
2023/10/06 05:32:58;;;;;;;14.13;10.00;;;6.50;99.90;;;5.83;100.00;99002.44;5046255;28;20460;-81
2023/10/06 05:35:26;;;;;;;14.20;9.70;;;6.50;99.90;;;5.87;100.00;98994.91;5032380;28;20456;-76
2023/10/06 05:37:54;;;;;;;17.90;9.87;;;6.60;99.90;;;5.89;100.00;99001.81;5040271;28;20450;-77
2023/10/06 05:40:22;;;;;;;13.77;10.40;;;6.60;99.90;;;6.12;100.00;98995.03;5041487;28;20783;-76
2023/10/06 05:42:50;;;;;;;17.10;10.63;;;6.70;99.90;;;5.87;100.00;98979.66;5042208;28;20888;-77
2023/10/06 05:45:19;;;;;;;17.17;10.17;;;6.70;99.90;;;6.06;100.00;99004.59;5042642;28;20469;-77
2023/10/06 05:47:50;;;;;;;13.93;10.33;;;6.70;99.90;;;6.09;100.00;99009.63;5051746;28;20580;-76
2023/10/06 05:50:27;;;;;;;16.07;9.80;;;6.80;99.90;;;6.15;100.00;99018.88;5060468;28;21214;-79
2023/10/06 05:53:04;;;;;;;17.30;9.77;;;6.80;99.90;;;6.05;100.00;99002.91;5040208;28;20859;-77
2023/10/06 05:55:35;;;;;;;13.80;9.80;;;6.80;99.90;;;6.18;100.00;99002.44;5046088;28;20456;-79
2023/10/06 05:58:03;;;;;;;15.23;9.57;;;6.90;99.90;;;6.35;100.00;99011.38;5043201;28;20460;-77
2023/10/06 06:00:31;;;;;;;20.00;10.80;;;7.00;99.90;;;6.58;100.00;99021.47;5038116;28;20476;-77
2023/10/06 06:03:09;;;;;;;18.73;10.17;;;7.10;99.90;;;6.64;100.00;99016.28;5044741;28;20460;-77
2023/10/06 06:05:38;;;;;;;23.00;10.10;;;7.20;99.90;;;6.52;100.00;98966.59;5045698;28;20460;-76
2023/10/06 06:08:08;;;;;;;14.83;10.43;;;7.30;99.90;;;6.74;100.00;99034.13;5036895;28;20465;-76
2023/10/06 06:10:37;;;;;;;15.73;10.90;;;7.40;98.20;;;6.80;100.00;99045.03;5040187;28;20459;-77
2023/10/06 06:13:05;;;;;;;13.23;10.53;;;7.40;98.10;;;6.59;100.00;99026.72;5035699;28;20461;-70
2023/10/06 06:15:32;;;;;;;14.23;10.03;;;7.40;97.40;;;6.91;100.00;99051.94;5044348;28;20520;-71
2023/10/06 06:18:00;;;;;;;22.17;10.70;;;7.40;98.80;;;7.00;100.00;99046.56;5050085;28;20576;-70
2023/10/06 06:20:29;;;;;;;14.43;10.00;;;7.50;98.50;;;6.94;100.00;99040.03;5044871;28;20518;-76
2023/10/06 06:22:58;;;;;;;13.80;9.63;;;7.60;97.40;;;6.85;100.00;99038.31;5051741;28;20503;-71
2023/10/06 06:25:27;;;;;;;13.07;9.80;;;7.60;96.90;;;6.94;100.00;99037.34;5037696;28;21003;-73
2023/10/06 06:27:59;;;;;;;16.70;10.37;;;7.50;97.30;;;7.03;100.00;99044.38;5030554;28;20524;-71
2023/10/06 06:30:26;;;;;;;16.07;10.53;;;7.60;97.90;;;6.98;100.00;99045.91;5055408;28;20454;-71
2023/10/06 06:32:55;;;;;;;13.30;10.60;;;7.60;96.80;;;7.15;100.00;99050.28;5041284;28;20438;-72
2023/10/06 06:35:24;;;;;;;13.87;10.50;;;7.70;97.60;;;7.28;100.00;99047.06;5035313;28;20838;-72
2023/10/06 06:37:59;;;;;;;15.57;11.40;;;7.80;97.10;;;6.93;100.00;98995.34;5040964;28;20442;-71
2023/10/06 06:40:28;;;;;;;15.23;10.37;;;7.90;96.80;;;7.31;99.69;99045.91;5033136;28;21119;-74
2023/10/06 06:42:57;;;;;;;14.57;11.07;;;7.90;96.60;;;6.98;99.40;98979.56;5042427;28;20452;-72
2023/10/06 06:45:25;;;;;;;18.47;11.30;;;8.00;96.50;;;6.95;98.52;98948.47;5038781;28;20459;-73
2023/10/06 06:47:53;;;;;;;14.73;9.27;;;8.10;96.20;;;7.62;98.96;99045.19;5039722;28;21023;-71
2023/10/06 06:50:21;;;;;;;15.70;10.93;;;8.20;95.80;;;7.60;98.44;99049.91;5037207;28;20454;-73
2023/10/06 06:52:51;;;;;;;18.97;10.03;;;8.20;95.10;;;7.85;98.22;99042.59;5038202;28;20479;-74
2023/10/06 06:55:20;;;;;;;16.90;10.43;;;8.30;95.60;;;7.91;96.98;99047.28;5040510;28;20469;-74
2023/10/06 06:57:49;;;;;;;14.93;10.87;;;8.50;94.40;;;7.73;96.37;99041.28;5042503;28;20446;-72
2023/10/06 07:00:21;;;;;;;23.83;11.70;;;8.50;93.50;;;7.94;96.05;99038.03;5037272;28;20450;-73
2023/10/06 07:02:51;;;;;;;15.17;8.87;;;8.60;94.10;;;7.80;95.93;99029.66;5050230;28;21265;-72
2023/10/06 07:05:21;;;;;;;15.43;9.70;;;8.60;93.20;;;8.14;96.41;99035.78;5043479;28;20459;-72
2023/10/06 07:07:51;;;;;;;18.70;9.50;;;8.60;94.20;;;8.30;94.56;99045.63;5046299;28;20473;-72
2023/10/06 07:10:22;;;;;;;14.50;10.23;;;8.80;93.40;;;8.00;94.08;99023.88;5044595;28;20457;-71
2023/10/06 07:12:51;;;;;;;14.60;9.83;;;8.80;92.50;;;8.05;94.99;99034.13;5041195;28;20449;-73
2023/10/06 07:15:23;;;;;;;15.50;10.37;;;8.80;92.60;;;8.19;94.75;99033.41;5055244;28;20465;-74
2023/10/06 07:17:54;;;;;;;16.23;8.90;;;8.80;93.00;;;8.66;94.44;99030.00;5031849;28;21234;-73
2023/10/06 07:20:24;;;;;;;16.20;10.33;;;9.00;93.90;;;8.47;93.00;99014.06;5033169;28;20532;-71
2023/10/06 07:22:53;;;;;;;11.43;9.80;;;9.10;92.20;;;8.78;92.37;99033.94;5036350;28;20468;-74
2023/10/06 07:25:23;;;;;;;12.10;8.93;;;9.30;92.40;;;9.09;91.62;99014.16;5034218;28;20934;-72
2023/10/06 07:27:55;;;;;;;12.43;9.30;;;9.50;92.60;;;9.13;91.67;99022.72;5044906;28;20449;-70
2023/10/06 07:30:25;;;;;;;12.80;10.05;;;9.50;92.00;;;9.48;90.50;99025.81;5041422;28;20468;-75
2023/10/06 07:32:55;;;;;;;22.20;10.93;;;9.80;91.80;;;9.21;89.76;99031.59;5043828;28;20463;-70
2023/10/06 07:35:27;;;;;;;12.17;9.50;;;9.80;90.80;;;9.25;90.59;99031.22;5048227;28;20566;-71
2023/10/06 07:37:54;;;;;;;20.17;10.67;;;9.80;91.20;;;9.43;90.10;99022.81;5047665;28;20463;-73
2023/10/06 07:40:22;;;;;;;15.20;10.13;;;9.90;91.30;;;9.44;89.32;99009.13;5042349;28;22310;-71
2023/10/06 07:42:50;;;;;;;15.43;9.50;;;10.10;90.80;;;9.63;89.93;99034.75;5047479;28;20448;-72
2023/10/06 07:45:20;;;;;;;15.87;9.70;;;10.20;90.60;;;9.53;89.73;99044.13;5045708;28;20453;-73
2023/10/06 07:47:49;;;;;;;15.10;10.83;;;10.10;90.30;;;9.91;89.62;99046.78;5044542;28;21027;-74
2023/10/06 07:50:16;;;;;;;20.53;10.33;;;10.30;90.70;;;10.29;90.15;99054.75;5039975;28;20456;-71
2023/10/06 07:52:47;;;;;;;14.50;10.27;;;10.60;91.50;;;10.72;87.32;99056.75;5042205;28;20885;-71
2023/10/06 07:55:16;;;;;;;16.70;10.50;;;11.00;90.80;;;10.90;87.02;99061.72;5063383;28;20454;-71
2023/10/06 07:57:47;;;;;;;15.93;9.93;;;11.20;90.50;;;10.83;85.85;99065.38;5046845;28;20558;-72
2023/10/06 08:00:18;;;;;;;16.43;10.43;;;11.30;89.50;;;11.03;86.33;99082.66;5043994;28;20482;-72
2023/10/06 08:02:47;;;;;;;19.17;10.60;;;11.40;90.00;;;11.34;84.79;99073.38;5044728;28;20489;-75
2023/10/06 08:05:17;;;;;;;17.87;10.80;;;11.60;89.40;;;11.45;82.91;99054.97;5040978;28;20455;-72
2023/10/06 08:07:44;;;;;;;14.77;10.40;;;11.80;88.10;;;11.22;82.85;99058.69;5038859;28;20447;-74
2023/10/06 08:10:14;;;;;;;15.70;11.50;;;11.80;87.30;;;11.05;83.26;99040.03;5044870;28;20451;-75
2023/10/06 08:12:43;;;;;;;18.33;10.20;;;11.70;87.30;;;11.04;84.06;99051.88;5038515;28;20451;-70
2023/10/06 08:15:16;;;;;;;16.17;11.30;;;11.60;87.60;;;11.58;83.38;99055.03;5043010;28;20455;-77
2023/10/06 08:17:46;;;;;;;21.33;10.40;;;11.80;88.00;;;11.41;83.16;99049.09;5047515;28;20946;-73
2023/10/06 08:20:16;;;;;;;15.63;10.90;;;11.90;87.40;;;11.40;83.69;99050.13;5043809;28;20546;-70
2023/10/06 08:22:46;;;;;;;16.40;10.23;;;11.90;87.50;;;11.70;83.56;99049.09;5042859;28;20944;-71
2023/10/06 08:25:14;;;;;;;17.90;11.63;;;12.00;88.00;;;11.71;81.36;99015.56;5044963;28;20511;-71
2023/10/06 08:27:42;;;;;;;19.33;10.83;;;12.30;87.00;;;11.36;83.56;99029.88;5043041;28;20446;-71
2023/10/06 08:30:16;;;;;;;16.10;10.60;;;12.10;86.90;;;11.60;84.16;99039.47;5043129;28;20508;-69
2023/10/06 08:32:44;;;;;;;18.17;11.37;;;12.00;87.70;;;11.87;83.25;99044.22;5044186;28;20558;-72
2023/10/06 08:35:13;;;;;;;18.93;11.80;;;12.20;87.50;;;11.86;82.76;99043.34;5042804;28;20462;-70
2023/10/06 08:37:43;;;;;;;19.17;12.10;;;12.30;87.40;;;12.01;82.64;99045.09;5046022;28;20467;-70
2023/10/06 08:40:16;;;;;;;14.60;10.43;;;12.40;87.60;;;12.21;81.84;99049.81;5044363;28;20781;-71
2023/10/06 08:42:48;;;;;;;14.43;9.63;;;12.50;87.50;;;12.46;81.40;99042.03;5043367;28;20455;-74
2023/10/06 08:45:20;;;;;;;15.00;10.70;;;12.70;87.40;;;12.72;79.38;99046.69;5043016;28;20462;-71
2023/10/06 08:47:49;;;;;;;15.67;9.67;;;12.90;86.70;;;12.77;80.12;99053.38;5044775;28;20444;-73
2023/10/06 08:50:22;;;;;;;16.87;9.63;;;13.10;86.60;;;12.90;78.52;99039.84;5041902;28;20560;-71
2023/10/06 08:52:53;;;;;;;20.93;9.77;;;13.20;86.00;;;12.82;78.64;99040.06;5053235;28;20448;-72
2023/10/06 08:55:21;;;;;;;14.70;9.33;;;13.20;85.80;;;13.10;77.08;99037.19;5045011;28;20460;-71
2023/10/06 08:57:50;;;;;;;10.43;7.20;;;13.40;85.50;;;12.77;77.11;98989.16;5040152;28;20929;-73
2023/10/06 09:00:18;;;;;;;10.00;6.80;;;13.50;85.00;;;12.82;77.65;99024.59;5021137;28;20452;-72
2023/10/06 09:02:49;;;;;;;14.70;8.53;;;13.40;84.80;;;13.19;77.09;99029.66;5039665;28;21000;-70
2023/10/06 09:05:17;;;;;;;15.47;7.40;;;13.50;85.00;;;13.33;76.01;99035.94;5035952;28;20965;-69
2023/10/06 09:08:05;;;;;;;16.00;7.87;;;13.70;84.60;;;13.20;75.34;98987.09;5055017;28;20453;-72
2023/10/06 09:10:33;;;;;;;10.30;6.53;;;13.80;84.10;;;13.35;74.96;99027.59;5035265;28;20473;-73
2023/10/06 09:13:04;;;;;;;13.13;6.60;;;13.90;83.70;;;13.21;75.92;99016.72;5053443;28;20835;-70
2023/10/06 09:15:32;;;;;;;8.23;6.30;;;13.80;83.90;;;13.49;74.65;99023.84;5041470;28;20467;-71
2023/10/06 09:18:02;;;;;;;12.00;6.33;;;13.80;83.80;;;13.59;73.77;99020.72;5039427;28;21000;-76
2023/10/06 09:20:36;;;;;;;11.20;6.63;;;13.90;83.10;;;13.67;73.06;98998.78;5038342;28;20513;-73
2023/10/06 09:23:05;;;;;;;11.47;6.37;;;14.10;83.20;;;13.85;72.87;99019.81;5038197;28;20549;-71
2023/10/06 09:25:45;;;;;;;11.33;5.73;;;14.20;82.50;;;14.00;71.12;99018.75;5040058;28;20522;-71
2023/10/06 09:28:14;;;;;;;8.97;5.40;;;14.30;82.00;;;14.05;72.10;99010.81;5039001;28;20457;-71
2023/10/06 09:30:56;;;;;;;9.03;5.50;;;14.40;82.30;;;14.03;70.67;99012.91;5039210;28;20463;-72
2023/10/06 09:33:26;;;;;;;9.90;5.53;;;14.50;81.20;;;14.09;70.39;99000.31;5039597;28;21008;-72
2023/10/06 09:36:08;;;;;;;7.20;4.90;;;14.50;80.80;;;14.11;69.54;98992.81;5054386;28;20561;-72
2023/10/06 09:38:39;;;;;;;8.83;5.17;;;14.60;80.30;;;14.06;70.77;99001.59;5056734;28;20519;-69
2023/10/06 09:41:09;;;;;;;8.10;4.47;;;14.40;80.80;;;14.37;69.10;98991.00;5041086;28;20467;-71
2023/10/06 09:43:39;;;;;;;10.17;4.97;;;14.70;80.80;;;14.60;67.55;98987.75;5043263;28;20519;-74
2023/10/06 09:46:08;;;;;;;10.23;4.93;;;14.80;79.80;;;14.76;67.12;98974.72;5043823;28;20453;-70
2023/10/06 09:48:38;;;;;;;12.93;5.53;;;15.00;79.60;;;14.77;67.10;98984.53;5042115;28;20453;-72
2023/10/06 09:51:07;;;;;;;9.73;4.37;;;15.10;79.10;;;15.15;64.91;98986.38;5035862;28;20959;-70
2023/10/06 09:53:38;;;;;;;8.67;4.57;;;15.30;78.00;;;15.16;62.99;98982.59;5044529;28;20454;-71
2023/10/06 09:56:09;;;;;;;6.33;4.37;;;15.50;76.40;;;15.08;62.85;98952.94;5049068;28;20462;-76
2023/10/06 09:58:39;;;;;;;7.70;4.60;;;15.50;76.40;;;15.22;62.31;98973.53;5055789;28;20439;-77
2023/10/06 10:01:10;;;;;;;6.80;4.20;;;15.70;75.50;;;15.51;61.02;98983.97;5050642;28;20454;-75
2023/10/06 10:03:37;;;;;;;4.90;3.77;;;15.70;74.50;;;15.58;60.52;98980.13;5053494;28;20508;-76
2023/10/06 10:06:05;;;;;;;7.00;4.37;;;15.80;74.10;;;15.58;60.55;98969.25;5041784;28;21011;-77
2023/10/06 10:08:33;;;;;;;6.33;4.50;;;15.90;73.80;;;15.54;59.65;98983.53;5042673;28;20464;-76
2023/10/06 10:11:13;;;;;;;6.30;3.63;;;15.90;72.80;;;15.05;60.67;98966.97;5035861;28;20465;-75
2023/10/06 10:14:06;;;;;;;9.47;4.07;;;15.60;72.50;;;15.09;61.37;98969.03;5045768;28;20449;-75
2023/10/06 10:16:56;;;;;;;5.70;3.80;;;15.50;73.20;;;15.17;60.77;98942.63;5033247;28;20468;-75
2023/10/06 10:19:26;;;;;;;8.17;3.97;;;15.60;72.80;;;15.49;59.98;98964.31;5045514;28;20488;-76
2023/10/06 10:21:55;;;;;;;14.93;4.87;;;15.80;72.70;;;15.57;60.67;98967.56;5041255;28;20457;-76
2023/10/06 10:24:23;;;;;;;9.27;4.20;;;15.90;72.80;;;15.48;60.23;98963.47;5041775;28;20458;-78
2023/10/06 10:26:54;;;;;;;9.57;4.00;;;15.90;72.30;;;15.91;58.89;98960.97;5041061;28;20460;-76
2023/10/06 10:29:32;;;;;;;13.03;4.70;;;16.10;72.00;;;16.06;56.95;98957.84;5042805;28;20484;-76
2023/10/06 10:32:06;;;;;;;5.00;3.40;;;16.30;70.30;;;16.37;55.33;98948.63;5044163;28;20514;-75